createdAt,value
2022-10-24T00:01:18.249Z,15.70
2022-10-24T00:03:45.097Z,15.70
2022-10-24T00:06:12.204Z,15.70
2022-10-24T00:08:39.345Z,15.70
2022-10-24T00:11:10.413Z,15.60
2022-10-24T00:13:37.045Z,15.60
2022-10-24T00:16:03.680Z,15.60
2022-10-24T00:18:30.300Z,15.60
2022-10-24T00:20:59.403Z,15.60
2022-10-24T00:23:26.129Z,15.60
2022-10-24T00:25:52.677Z,15.60
2022-10-24T00:28:19.298Z,15.60
2022-10-24T00:30:45.936Z,15.60
2022-10-24T00:33:12.497Z,15.60
2022-10-24T00:35:39.105Z,15.60
2022-10-24T00:38:05.661Z,15.60
2022-10-24T00:40:32.227Z,15.60
2022-10-24T00:42:58.817Z,15.60
2022-10-24T00:45:40.254Z,15.60
2022-10-24T00:48:15.438Z,15.60
2022-10-24T00:50:42.710Z,15.60
2022-10-24T00:53:09.659Z,15.60
2022-10-24T00:55:38.393Z,15.60
2022-10-24T00:58:06.591Z,15.60
2022-10-24T01:00:33.899Z,15.60
2022-10-24T01:03:00.974Z,15.60
2022-10-24T01:05:31.657Z,15.60
2022-10-24T01:08:16.871Z,15.60
2022-10-24T01:11:02.442Z,15.60
2022-10-24T01:13:34.874Z,15.60
2022-10-24T01:16:12.979Z,15.60
2022-10-24T01:18:39.530Z,15.60
2022-10-24T01:21:09.513Z,15.60
2022-10-24T01:23:54.415Z,15.50
2022-10-24T01:26:29.466Z,15.50
2022-10-24T01:29:16.980Z,15.60
2022-10-24T01:31:49.022Z,15.60
2022-10-24T01:34:20.566Z,15.50
2022-10-24T01:37:07.708Z,15.50
2022-10-24T01:39:37.124Z,15.60
2022-10-24T01:42:06.622Z,15.50
2022-10-24T01:44:36.737Z,15.50
2022-10-24T01:47:10.024Z,15.50
2022-10-24T01:49:37.963Z,15.50
2022-10-24T01:52:08.117Z,15.50
2022-10-24T01:54:37.902Z,15.50
2022-10-24T01:57:06.863Z,15.50
2022-10-24T01:59:33.410Z,15.50
2022-10-24T02:02:04.523Z,15.50
2022-10-24T02:04:32.567Z,15.50
2022-10-24T02:07:01.190Z,15.50
2022-10-24T02:09:28.394Z,15.50
2022-10-24T02:11:56.563Z,15.50
2022-10-24T02:14:29.930Z,15.50
2022-10-24T02:16:57.376Z,15.50
2022-10-24T02:19:24.006Z,15.50
2022-10-24T02:22:02.380Z,15.40
2022-10-24T02:24:31.635Z,15.40
2022-10-24T02:27:03.684Z,15.40
2022-10-24T02:29:41.875Z,15.40
2022-10-24T02:32:10.926Z,15.40
2022-10-24T02:34:38.397Z,15.40
2022-10-24T02:37:06.729Z,15.40
2022-10-24T02:39:34.623Z,15.50
2022-10-24T02:42:02.596Z,15.50
2022-10-24T02:44:32.075Z,15.50
2022-10-24T02:47:00.385Z,15.50
2022-10-24T02:49:27.159Z,15.50
2022-10-24T02:51:53.952Z,15.60
2022-10-24T02:54:20.593Z,15.60
2022-10-24T02:56:49.569Z,15.60
2022-10-24T02:59:16.137Z,15.60
2022-10-24T03:01:42.808Z,15.60
2022-10-24T03:04:09.542Z,15.60
2022-10-24T03:06:36.171Z,15.60
2022-10-24T03:09:03.206Z,15.60
2022-10-24T03:11:32.183Z,15.60
2022-10-24T03:14:00.924Z,15.60
2022-10-24T03:16:29.888Z,15.50
2022-10-24T03:18:56.552Z,15.50
2022-10-24T03:21:23.471Z,15.50
2022-10-24T03:23:50.478Z,15.50
2022-10-24T03:26:17.049Z,15.50
2022-10-24T03:28:43.637Z,15.50
2022-10-24T03:31:10.493Z,15.50
2022-10-24T03:33:39.314Z,15.60
2022-10-24T03:36:05.905Z,15.60
2022-10-24T03:38:32.451Z,15.50
2022-10-24T03:40:59.045Z,15.60
2022-10-24T03:43:25.592Z,15.50
2022-10-24T03:45:52.180Z,15.50
2022-10-24T03:48:21.147Z,15.50
2022-10-24T03:50:47.700Z,15.50
2022-10-24T03:53:14.247Z,15.50
2022-10-24T03:55:43.254Z,15.50
2022-10-24T03:58:09.814Z,15.50
2022-10-24T04:00:40.270Z,15.50
2022-10-24T04:03:07.501Z,15.50
2022-10-24T04:08:13.852Z,15.50
2022-10-24T04:10:40.506Z,15.40
2022-10-24T04:13:07.134Z,15.40
2022-10-24T04:15:33.716Z,15.40
2022-10-24T04:18:02.885Z,15.50
2022-10-24T04:20:29.525Z,15.50
2022-10-24T04:22:56.164Z,15.50
2022-10-24T04:25:22.802Z,15.40
2022-10-24T04:27:49.388Z,15.40
2022-10-24T04:30:20.927Z,15.40
2022-10-24T04:32:47.810Z,15.40
2022-10-24T04:35:17.024Z,15.40
2022-10-24T04:37:43.590Z,15.30
2022-10-24T04:40:10.562Z,15.30
2022-10-24T04:42:39.729Z,15.30
2022-10-24T04:45:06.969Z,15.30
2022-10-24T04:47:33.514Z,15.30
2022-10-24T04:50:00.097Z,15.30
2022-10-24T04:52:26.680Z,15.30
2022-10-24T04:54:53.383Z,15.30
2022-10-24T04:57:20.009Z,15.30
2022-10-24T04:59:46.575Z,15.30
2022-10-24T05:02:13.206Z,15.30
2022-10-24T05:04:39.811Z,15.30
2022-10-24T05:07:06.359Z,15.30
2022-10-24T05:09:33.045Z,15.30
2022-10-24T05:11:59.660Z,15.30
2022-10-24T05:14:26.218Z,15.30
2022-10-24T05:16:55.734Z,15.30
2022-10-24T05:19:22.277Z,15.30
2022-10-24T05:21:51.319Z,15.30
2022-10-24T05:24:20.362Z,15.30
2022-10-24T05:26:46.913Z,15.30
2022-10-24T05:29:13.514Z,15.30
2022-10-24T05:31:40.251Z,15.30
2022-10-24T05:34:08.962Z,15.30
2022-10-24T05:36:35.584Z,15.40
2022-10-24T05:39:02.173Z,15.40
2022-10-24T05:41:28.810Z,15.40
2022-10-24T05:43:55.432Z,15.40
2022-10-24T05:46:24.482Z,15.40
2022-10-24T05:48:51.087Z,15.30
2022-10-24T05:51:17.658Z,15.40
2022-10-24T05:53:44.317Z,15.40
2022-10-24T05:56:10.940Z,15.40
2022-10-24T05:58:37.534Z,15.40
2022-10-24T06:01:04.714Z,15.40
2022-10-24T06:03:31.337Z,15.40
2022-10-24T06:05:57.904Z,15.40
2022-10-24T06:08:24.484Z,15.40
2022-10-24T06:10:53.591Z,15.40
2022-10-24T06:13:22.563Z,15.40
2022-10-24T06:15:49.212Z,15.40
2022-10-24T06:18:18.207Z,15.40
2022-10-24T06:20:44.759Z,15.40
2022-10-24T06:23:11.449Z,15.40
2022-10-24T06:25:40.602Z,15.40
2022-10-24T06:30:35.513Z,15.50
2022-10-24T06:33:03.568Z,15.50
2022-10-24T06:35:30.142Z,15.50
2022-10-24T06:37:56.736Z,15.50
2022-10-24T06:40:25.778Z,15.50
2022-10-24T06:42:52.408Z,15.60
2022-10-24T06:45:21.282Z,15.60
2022-10-24T06:47:51.795Z,15.60
2022-10-24T06:50:20.713Z,15.60
2022-10-24T06:52:47.293Z,15.60
2022-10-24T06:55:13.842Z,15.70
2022-10-24T06:57:40.426Z,15.70
2022-10-24T07:00:09.841Z,15.70
2022-10-24T07:02:36.616Z,15.70
2022-10-24T07:05:08.755Z,15.60
2022-10-24T07:07:35.317Z,15.60
2022-10-24T07:10:04.580Z,15.60
2022-10-24T07:12:31.133Z,15.60
2022-10-24T07:14:57.740Z,15.60
2022-10-24T07:17:24.348Z,15.60
2022-10-24T07:19:54.460Z,15.60
2022-10-24T07:22:21.053Z,15.60
2022-10-24T07:24:51.990Z,15.60
2022-10-24T07:27:18.584Z,15.70
2022-10-24T07:29:45.141Z,15.70
2022-10-24T07:32:13.648Z,15.70
2022-10-24T07:34:40.602Z,15.70
2022-10-24T07:37:07.185Z,15.70
2022-10-24T07:39:33.938Z,15.80
2022-10-24T07:42:00.579Z,15.80
2022-10-24T07:44:27.219Z,15.80
2022-10-24T07:46:53.875Z,15.70
2022-10-24T07:49:20.443Z,15.80
2022-10-24T07:51:49.746Z,15.90
2022-10-24T07:54:16.399Z,15.90
2022-10-24T07:56:43.005Z,15.80
2022-10-24T07:59:18.398Z,15.90
2022-10-24T08:01:56.203Z,16.00
2022-10-24T08:04:22.769Z,16.00
2022-10-24T08:06:51.696Z,16.00
2022-10-24T08:09:18.970Z,16.10
2022-10-24T08:11:45.786Z,16.10
2022-10-24T08:14:14.845Z,16.20
2022-10-24T08:16:44.391Z,16.20
2022-10-24T08:19:12.367Z,16.20
2022-10-24T08:21:38.998Z,16.20
2022-10-24T08:24:05.767Z,16.20
2022-10-24T08:26:32.368Z,16.30
2022-10-24T08:28:58.979Z,16.30
2022-10-24T08:31:26.263Z,16.40
2022-10-24T08:33:55.708Z,16.40
2022-10-24T08:36:30.040Z,16.50
2022-10-24T08:38:57.136Z,16.70
2022-10-24T08:41:38.143Z,16.70
2022-10-24T08:44:14.269Z,16.70
2022-10-24T08:46:50.316Z,16.80
2022-10-24T08:49:38.427Z,16.90
2022-10-24T08:52:14.478Z,16.80
2022-10-24T08:54:42.533Z,16.80
2022-10-24T08:57:17.374Z,16.90
2022-10-24T08:59:43.925Z,16.90
2022-10-24T09:02:13.560Z,16.90
2022-10-24T09:04:43.966Z,16.90
2022-10-24T09:07:15.808Z,16.90
2022-10-24T09:09:46.001Z,16.90
2022-10-24T09:12:16.518Z,16.90
2022-10-24T09:14:44.492Z,17.00
2022-10-24T09:17:11.161Z,17.10
2022-10-24T09:19:38.024Z,17.30
2022-10-24T09:22:06.133Z,17.30
2022-10-24T09:24:44.467Z,17.30
2022-10-24T09:27:31.295Z,17.30
2022-10-24T09:29:58.681Z,17.40
2022-10-24T09:32:26.810Z,17.40
2022-10-24T09:34:54.121Z,17.50
2022-10-24T09:37:37.593Z,17.50
2022-10-24T09:40:18.153Z,17.50
2022-10-24T09:43:07.724Z,17.60
2022-10-24T09:45:37.233Z,17.60
2022-10-24T09:48:07.440Z,17.60
2022-10-24T09:50:35.310Z,17.60
2022-10-24T09:53:04.896Z,17.70
2022-10-24T09:55:31.989Z,17.80
2022-10-24T09:58:03.916Z,17.80
2022-10-24T10:00:32.578Z,17.90
2022-10-24T10:03:03.303Z,17.90
2022-10-24T10:05:41.135Z,18.10
2022-10-24T10:08:12.921Z,18.10
2022-10-24T10:10:40.283Z,18.20
2022-10-24T10:13:15.945Z,18.30
2022-10-24T10:15:46.013Z,18.50
2022-10-24T10:18:26.351Z,18.60
2022-10-24T10:21:02.164Z,18.80
2022-10-24T10:23:33.793Z,19.00
2022-10-24T10:26:06.401Z,19.20
2022-10-24T10:28:36.896Z,19.10
2022-10-24T10:31:03.920Z,19.20
2022-10-24T10:33:40.348Z,19.20
2022-10-24T10:36:13.275Z,19.20
2022-10-24T10:38:42.685Z,19.10
2022-10-24T10:41:24.520Z,19.00
2022-10-24T10:43:51.137Z,18.90
2022-10-24T10:46:28.132Z,19.00
2022-10-24T10:49:06.694Z,19.00
2022-10-24T10:51:42.602Z,18.90
2022-10-24T10:54:27.894Z,18.80
2022-10-24T10:56:56.596Z,19.00
2022-10-24T10:59:57.106Z,19.00
2022-10-24T11:02:35.104Z,19.10
2022-10-24T11:05:04.823Z,19.10
2022-10-24T11:07:36.889Z,19.10
2022-10-24T11:10:06.234Z,19.00
2022-10-24T11:12:34.807Z,19.10
2022-10-24T11:18:00.616Z,19.20
2022-10-24T11:20:39.425Z,19.20
2022-10-24T11:23:18.623Z,19.20
2022-10-24T11:25:57.412Z,19.30
2022-10-24T11:28:28.962Z,19.20
2022-10-24T11:31:11.071Z,19.30
2022-10-24T11:33:49.672Z,19.30
2022-10-24T11:36:34.972Z,19.40
2022-10-24T11:39:20.530Z,19.40
2022-10-24T11:41:52.649Z,19.20
2022-10-24T11:44:21.647Z,19.10
2022-10-24T11:46:53.519Z,19.10
2022-10-24T11:49:30.154Z,19.20
2022-10-24T11:52:04.582Z,19.10
2022-10-24T11:54:34.754Z,19.20
2022-10-24T11:57:10.864Z,19.30
2022-10-24T11:59:40.934Z,19.30
2022-10-24T12:02:22.179Z,19.40
2022-10-24T12:04:54.877Z,19.40
2022-10-24T12:07:42.565Z,19.60
2022-10-24T12:10:18.187Z,19.80
2022-10-24T12:13:03.590Z,19.80
2022-10-24T12:15:39.115Z,19.80
2022-10-24T12:18:13.472Z,19.90
2022-10-24T12:20:43.108Z,19.90
2022-10-24T12:23:18.100Z,19.80
2022-10-24T12:25:47.374Z,19.90
2022-10-24T12:28:22.551Z,19.90
2022-10-24T12:31:12.979Z,19.90
2022-10-24T12:33:39.576Z,19.80
2022-10-24T12:36:06.831Z,19.80
2022-10-24T12:38:33.385Z,19.70
2022-10-24T12:41:06.756Z,19.60
2022-10-24T12:43:35.156Z,19.60
2022-10-24T12:46:23.504Z,19.70
2022-10-24T12:48:59.528Z,19.70
2022-10-24T12:51:33.622Z,19.80
2022-10-24T12:54:00.679Z,19.80
2022-10-24T12:56:27.345Z,20.00
2022-10-24T12:59:04.445Z,20.00
2022-10-24T13:01:35.812Z,20.00
2022-10-24T13:04:10.809Z,20.00
2022-10-24T13:06:45.540Z,20.10
2022-10-24T13:09:31.677Z,20.00
2022-10-24T13:12:07.646Z,19.80
2022-10-24T13:14:36.334Z,19.80
2022-10-24T13:17:10.372Z,19.60
2022-10-24T13:19:37.011Z,19.40
2022-10-24T13:22:03.692Z,19.30
2022-10-24T13:24:30.235Z,19.20
2022-10-24T13:26:56.807Z,19.20
2022-10-24T13:29:23.362Z,19.20
2022-10-24T13:31:55.993Z,19.10
2022-10-24T13:34:28.849Z,19.30
2022-10-24T13:37:02.713Z,19.40
2022-10-24T13:39:33.108Z,19.50
2022-10-24T13:42:07.278Z,19.40
2022-10-24T13:44:36.971Z,19.30
2022-10-24T13:47:11.590Z,19.30
2022-10-24T13:49:43.551Z,19.30
2022-10-24T13:52:19.382Z,19.30
2022-10-24T13:54:48.037Z,19.30
2022-10-24T13:57:25.466Z,19.30
2022-10-24T13:59:58.567Z,19.30
2022-10-24T14:02:29.891Z,19.20
2022-10-24T14:05:01.683Z,19.20
2022-10-24T14:07:30.022Z,19.20
2022-10-24T14:10:10.965Z,19.00
2022-10-24T14:12:40.558Z,19.00
2022-10-24T14:15:15.775Z,19.00
2022-10-24T14:17:52.514Z,18.90
2022-10-24T14:20:19.248Z,18.80
2022-10-24T14:22:46.209Z,18.80
2022-10-24T14:25:28.383Z,18.90
2022-10-24T14:27:55.922Z,18.90
2022-10-24T14:30:23.645Z,19.10
2022-10-24T14:33:03.064Z,19.40
2022-10-24T14:35:29.671Z,19.60
2022-10-24T14:37:56.327Z,20.00
2022-10-24T14:40:22.993Z,20.40
2022-10-24T14:42:49.950Z,20.30
2022-10-24T14:45:26.399Z,20.00
2022-10-24T14:47:54.547Z,19.60
2022-10-24T14:50:39.097Z,19.30
2022-10-24T14:53:05.794Z,19.20
2022-10-24T14:55:32.396Z,19.20
2022-10-24T14:57:59.082Z,19.20
2022-10-24T15:00:26.538Z,19.10
2022-10-24T15:03:02.327Z,19.00
2022-10-24T15:05:30.673Z,18.90
2022-10-24T15:08:27.857Z,18.80
2022-10-24T15:11:26.810Z,18.80
2022-10-24T15:14:06.648Z,18.80
2022-10-24T15:16:38.898Z,18.60
2022-10-24T15:19:14.902Z,18.60
2022-10-24T15:21:46.057Z,18.50
2022-10-24T15:24:23.065Z,18.40
2022-10-24T15:26:50.236Z,18.40
2022-10-24T15:29:21.517Z,18.30
2022-10-24T15:31:51.062Z,18.30
2022-10-24T15:34:19.196Z,18.30
2022-10-24T15:36:49.533Z,18.30
2022-10-24T15:39:17.923Z,18.40
2022-10-24T15:41:44.515Z,18.40
2022-10-24T15:44:16.279Z,18.40
2022-10-24T15:46:43.239Z,18.40
2022-10-24T15:49:09.934Z,18.30
2022-10-24T15:51:37.883Z,18.30
2022-10-24T15:54:04.617Z,18.20
2022-10-24T15:56:33.621Z,18.20
2022-10-24T15:59:02.626Z,18.20
2022-10-24T16:01:36.091Z,18.10
2022-10-24T16:04:05.441Z,18.10
2022-10-24T16:06:32.098Z,18.00
2022-10-24T16:08:58.637Z,18.00
2022-10-24T16:11:25.397Z,18.00
2022-10-24T16:13:54.254Z,17.90
2022-10-24T16:16:20.864Z,17.90
2022-10-24T16:18:47.489Z,17.90
2022-10-24T16:21:17.096Z,17.80
2022-10-24T16:23:46.125Z,17.80
2022-10-24T16:26:12.673Z,17.80
2022-10-24T16:28:39.262Z,17.70
2022-10-24T16:31:06.578Z,17.70
2022-10-24T16:33:35.427Z,17.80
2022-10-24T16:36:04.379Z,17.70
2022-10-24T16:38:31.565Z,17.70
2022-10-24T16:40:58.320Z,17.70
2022-10-24T16:43:24.917Z,17.70
2022-10-24T16:45:58.149Z,17.70
2022-10-24T16:48:27.478Z,17.70
2022-10-24T16:50:54.543Z,17.60
2022-10-24T16:53:21.995Z,17.60
2022-10-24T16:55:49.388Z,17.60
2022-10-24T16:58:16.195Z,17.60
2022-10-24T17:00:42.846Z,17.60
2022-10-24T17:03:09.596Z,17.50
2022-10-24T17:05:36.325Z,17.50
2022-10-24T17:08:02.976Z,17.50
2022-10-24T17:10:30.043Z,17.50
2022-10-24T17:13:00.917Z,17.50
2022-10-24T17:15:27.669Z,17.50
2022-10-24T17:17:54.274Z,17.50
2022-10-24T17:20:20.925Z,17.50
2022-10-24T17:22:49.924Z,17.40
2022-10-24T17:25:18.433Z,17.40
2022-10-24T17:27:45.476Z,17.40
2022-10-24T17:30:14.621Z,17.40
2022-10-24T17:32:41.303Z,17.40
2022-10-24T17:35:08.128Z,17.40
2022-10-24T17:37:44.115Z,17.30
2022-10-24T17:40:19.313Z,17.30
2022-10-24T17:42:49.065Z,17.30
2022-10-24T17:45:23.375Z,17.20
2022-10-24T17:47:49.995Z,17.20
2022-10-24T17:50:17.198Z,17.20
2022-10-24T17:52:50.798Z,17.10
2022-10-24T17:55:34.391Z,17.10
2022-10-24T17:58:06.129Z,17.10
2022-10-24T18:00:35.611Z,17.10
2022-10-24T18:03:02.346Z,17.10
2022-10-24T18:05:29.827Z,17.10
2022-10-24T18:07:57.838Z,17.10
2022-10-24T18:10:26.839Z,17.10
2022-10-24T18:12:55.817Z,17.10
2022-10-24T18:15:24.874Z,17.10
2022-10-24T18:17:53.973Z,17.10
2022-10-24T18:20:22.913Z,17.00
2022-10-24T18:22:49.767Z,17.00
2022-10-24T18:25:20.306Z,17.00
2022-10-24T18:27:49.758Z,17.00
2022-10-24T18:30:16.841Z,17.00
2022-10-24T18:32:47.217Z,17.00
2022-10-24T18:35:16.392Z,17.00
2022-10-24T18:37:43.066Z,17.00
2022-10-24T18:40:10.066Z,16.90
2022-10-24T18:42:36.648Z,16.90
2022-10-24T18:45:04.074Z,16.90
2022-10-24T18:47:31.209Z,16.90
2022-10-24T18:49:57.954Z,16.90
2022-10-24T18:52:29.816Z,16.90
2022-10-24T18:55:02.292Z,16.80
2022-10-24T18:57:32.481Z,16.80
2022-10-24T18:59:59.817Z,16.70
2022-10-24T19:02:28.578Z,16.60
2022-10-24T19:05:18.508Z,16.50
2022-10-24T19:07:46.237Z,16.30
2022-10-24T19:10:23.580Z,16.20
2022-10-24T19:12:59.206Z,16.10
2022-10-24T19:15:29.049Z,16.00
2022-10-24T19:17:56.395Z,15.90
2022-10-24T19:20:23.872Z,15.80
2022-10-24T19:22:50.788Z,15.80
2022-10-24T19:25:17.492Z,15.70
2022-10-24T19:27:44.457Z,15.60
2022-10-24T19:30:11.417Z,15.60
2022-10-24T19:32:38.094Z,15.60
2022-10-24T19:35:04.857Z,15.60
2022-10-24T19:37:31.467Z,15.50
2022-10-24T19:39:58.258Z,15.50
2022-10-24T19:42:25.363Z,15.50
2022-10-24T19:44:54.605Z,15.40
2022-10-24T19:47:23.814Z,15.40
2022-10-24T19:49:52.795Z,15.40
2022-10-24T19:52:19.389Z,15.30
2022-10-24T19:54:46.017Z,15.30
2022-10-24T19:57:12.711Z,15.20
2022-10-24T19:59:39.346Z,15.20
2022-10-24T20:02:08.785Z,15.20
2022-10-24T20:04:40.097Z,15.10
2022-10-24T20:07:09.944Z,15.10
2022-10-24T20:09:38.950Z,15.10
2022-10-24T20:12:05.774Z,15.10
2022-10-24T20:14:32.403Z,15.00
2022-10-24T20:16:59.009Z,15.00
2022-10-24T20:19:27.792Z,15.00
2022-10-24T20:21:55.923Z,15.00
2022-10-24T20:24:24.495Z,15.00
2022-10-24T20:26:51.120Z,15.00
2022-10-24T20:29:17.752Z,15.00
2022-10-24T20:31:45.809Z,14.90
2022-10-24T20:34:13.371Z,14.90
2022-10-24T20:36:41.614Z,14.90
2022-10-24T20:39:08.618Z,14.80
2022-10-24T20:41:35.716Z,14.80
2022-10-24T20:44:02.354Z,14.80
2022-10-24T20:46:28.989Z,14.80
2022-10-24T20:48:55.603Z,14.80
2022-10-24T20:51:24.583Z,14.70
2022-10-24T20:53:51.848Z,14.70
2022-10-24T20:56:22.463Z,14.70
2022-10-24T20:58:52.486Z,14.70
2022-10-24T21:01:20.894Z,14.70
2022-10-24T21:03:48.480Z,14.70
2022-10-24T21:06:28.767Z,14.60
2022-10-24T21:08:56.645Z,14.60
2022-10-24T21:11:27.520Z,14.60
2022-10-24T21:13:57.932Z,14.60
2022-10-24T21:16:25.120Z,14.60
2022-10-24T21:18:52.197Z,14.50
2022-10-24T21:21:19.536Z,14.50
2022-10-24T21:23:49.387Z,14.40
2022-10-24T21:26:16.084Z,14.40
2022-10-24T21:28:44.811Z,14.40
2022-10-24T21:31:12.470Z,14.40
2022-10-24T21:33:41.279Z,14.40
2022-10-24T21:36:17.136Z,14.40
2022-10-24T21:38:47.834Z,14.40
2022-10-24T21:41:14.556Z,14.40
2022-10-24T21:43:42.176Z,14.40
2022-10-24T21:46:17.219Z,14.30
2022-10-24T21:48:47.174Z,14.30
2022-10-24T21:51:16.917Z,14.30
2022-10-24T21:53:43.491Z,14.20
2022-10-24T21:56:11.399Z,14.20
2022-10-24T21:58:38.676Z,14.20
2022-10-24T22:01:09.433Z,14.20
2022-10-24T22:03:36.061Z,14.20
2022-10-24T22:06:02.626Z,14.20
2022-10-24T22:08:29.195Z,14.10
2022-10-24T22:11:06.209Z,14.10
2022-10-24T22:13:33.457Z,14.10
2022-10-24T22:16:00.744Z,14.10
2022-10-24T22:18:28.561Z,14.10
2022-10-24T22:20:55.359Z,14.00
2022-10-24T22:23:22.059Z,14.00
2022-10-24T22:25:48.686Z,14.00
2022-10-24T22:28:15.666Z,14.00
2022-10-24T22:30:42.437Z,14.00
2022-10-24T22:33:27.710Z,13.90
2022-10-24T22:35:57.846Z,13.90
2022-10-24T22:38:26.838Z,13.90
2022-10-24T22:40:53.531Z,14.00
2022-10-24T22:43:20.303Z,14.00
2022-10-24T22:46:12.584Z,14.00
2022-10-24T22:48:40.010Z,14.00
2022-10-24T22:51:08.815Z,14.00
2022-10-24T22:53:37.892Z,14.00
2022-10-24T22:56:10.139Z,13.90
2022-10-24T22:58:37.126Z,13.90
2022-10-24T23:01:17.249Z,13.90
2022-10-24T23:04:02.741Z,13.90
2022-10-24T23:06:34.817Z,13.90
2022-10-24T23:09:01.408Z,13.90
2022-10-24T23:11:28.167Z,13.90
2022-10-24T23:13:54.926Z,13.80
2022-10-24T23:16:27.532Z,13.80
2022-10-24T23:18:54.304Z,13.80
2022-10-24T23:21:30.365Z,13.80
2022-10-24T23:23:59.374Z,13.80
2022-10-24T23:26:32.138Z,13.70
2022-10-24T23:29:13.298Z,13.80
2022-10-24T23:31:39.962Z,13.80
2022-10-24T23:34:08.556Z,13.80
2022-10-24T23:36:37.551Z,13.80
2022-10-24T23:39:06.762Z,13.80
2022-10-24T23:41:33.497Z,13.80
2022-10-24T23:44:00.198Z,13.70
2022-10-24T23:46:31.663Z,13.70
2022-10-24T23:49:19.481Z,13.70
2022-10-24T23:51:53.067Z,13.70
2022-10-24T23:54:22.088Z,13.70
2022-10-24T23:57:38.461Z,13.70
